sensor_id;sensor_type;location;lat;lon;timestamp;P1;durP1;ratioP1;P2;durP2;ratioP2
72422;SDS011;71399;54.146;38.734;2024-02-21T00:02:25;7.40;;;3.95;;
72422;SDS011;71399;54.146;38.734;2024-02-21T00:04:53;10.15;;;4.00;;
72422;SDS011;71399;54.146;38.734;2024-02-21T00:07:19;11.18;;;4.53;;
72422;SDS011;71399;54.146;38.734;2024-02-21T00:09:45;8.80;;;4.25;;
72422;SDS011;71399;54.146;38.734;2024-02-21T00:12:11;8.52;;;3.83;;
72422;SDS011;71399;54.146;38.734;2024-02-21T00:14:39;7.68;;;3.55;;
72422;SDS011;71399;54.146;38.734;2024-02-21T00:17:06;8.88;;;4.22;;
72422;SDS011;71399;54.146;38.734;2024-02-21T00:19:34;8.00;;;3.92;;
72422;SDS011;71399;54.146;38.734;2024-02-21T00:22:00;10.27;;;4.43;;
72422;SDS011;71399;54.146;38.734;2024-02-21T00:24:28;8.10;;;4.15;;
72422;SDS011;71399;54.146;38.734;2024-02-21T00:26:54;9.93;;;4.40;;
72422;SDS011;71399;54.146;38.734;2024-02-21T00:29:20;10.00;;;4.28;;
72422;SDS011;71399;54.146;38.734;2024-02-21T00:31:47;9.27;;;4.55;;
72422;SDS011;71399;54.146;38.734;2024-02-21T00:34:15;7.18;;;3.55;;
72422;SDS011;71399;54.146;38.734;2024-02-21T00:36:41;8.48;;;4.05;;
72422;SDS011;71399;54.146;38.734;2024-02-21T00:39:08;22.08;;;4.50;;
72422;SDS011;71399;54.146;38.734;2024-02-21T00:41:34;7.40;;;3.72;;
72422;SDS011;71399;54.146;38.734;2024-02-21T00:44:00;9.00;;;3.78;;
72422;SDS011;71399;54.146;38.734;2024-02-21T00:46:26;6.03;;;3.10;;
72422;SDS011;71399;54.146;38.734;2024-02-21T00:48:53;10.25;;;3.88;;
72422;SDS011;71399;54.146;38.734;2024-02-21T00:51:19;9.32;;;4.57;;
72422;SDS011;71399;54.146;38.734;2024-02-21T00:53:46;11.40;;;4.53;;
72422;SDS011;71399;54.146;38.734;2024-02-21T00:56:12;9.07;;;4.03;;
72422;SDS011;71399;54.146;38.734;2024-02-21T00:58:39;9.88;;;4.38;;
72422;SDS011;71399;54.146;38.734;2024-02-21T01:01:05;9.93;;;4.22;;
72422;SDS011;71399;54.146;38.734;2024-02-21T01:03:31;10.57;;;3.97;;
72422;SDS011;71399;54.146;38.734;2024-02-21T01:05:58;13.32;;;4.30;;
72422;SDS011;71399;54.146;38.734;2024-02-21T01:08:24;8.95;;;3.90;;
72422;SDS011;71399;54.146;38.734;2024-02-21T01:10:50;13.35;;;4.88;;
72422;SDS011;71399;54.146;38.734;2024-02-21T01:13:18;12.90;;;4.97;;
72422;SDS011;71399;54.146;38.734;2024-02-21T01:15:44;9.15;;;4.15;;
72422;SDS011;71399;54.146;38.734;2024-02-21T01:18:10;11.35;;;4.82;;
72422;SDS011;71399;54.146;38.734;2024-02-21T01:20:36;9.70;;;4.32;;
72422;SDS011;71399;54.146;38.734;2024-02-21T01:23:03;10.98;;;4.82;;
72422;SDS011;71399;54.146;38.734;2024-02-21T01:25:30;10.40;;;4.13;;
72422;SDS011;71399;54.146;38.734;2024-02-21T01:27:57;10.70;;;4.82;;
72422;SDS011;71399;54.146;38.734;2024-02-21T01:30:23;10.95;;;5.20;;
72422;SDS011;71399;54.146;38.734;2024-02-21T01:32:50;10.20;;;4.45;;
72422;SDS011;71399;54.146;38.734;2024-02-21T01:35:17;10.35;;;4.60;;
72422;SDS011;71399;54.146;38.734;2024-02-21T01:37:43;11.63;;;4.47;;
72422;SDS011;71399;54.146;38.734;2024-02-21T01:40:10;8.65;;;4.00;;
72422;SDS011;71399;54.146;38.734;2024-02-21T01:42:40;10.30;;;4.78;;
72422;SDS011;71399;54.146;38.734;2024-02-21T01:45:07;12.15;;;4.53;;
72422;SDS011;71399;54.146;38.734;2024-02-21T01:47:34;8.32;;;4.15;;
72422;SDS011;71399;54.146;38.734;2024-02-21T01:50:01;11.25;;;4.97;;
72422;SDS011;71399;54.146;38.734;2024-02-21T01:52:29;12.07;;;4.95;;
72422;SDS011;71399;54.146;38.734;2024-02-21T01:54:57;8.50;;;3.90;;
72422;SDS011;71399;54.146;38.734;2024-02-21T01:57:24;9.02;;;3.92;;
72422;SDS011;71399;54.146;38.734;2024-02-21T01:59:50;8.68;;;4.30;;
72422;SDS011;71399;54.146;38.734;2024-02-21T02:02:17;9.75;;;4.07;;
72422;SDS011;71399;54.146;38.734;2024-02-21T02:04:44;12.77;;;5.25;;
72422;SDS011;71399;54.146;38.734;2024-02-21T02:07:11;7.10;;;3.63;;
72422;SDS011;71399;54.146;38.734;2024-02-21T02:09:37;9.98;;;4.63;;
72422;SDS011;71399;54.146;38.734;2024-02-21T02:12:04;9.45;;;4.07;;
72422;SDS011;71399;54.146;38.734;2024-02-21T02:14:31;10.18;;;4.53;;
72422;SDS011;71399;54.146;38.734;2024-02-21T02:16:57;10.45;;;4.55;;
72422;SDS011;71399;54.146;38.734;2024-02-21T02:19:23;10.55;;;5.13;;
72422;SDS011;71399;54.146;38.734;2024-02-21T02:21:50;11.20;;;4.75;;
72422;SDS011;71399;54.146;38.734;2024-02-21T02:24:24;15.93;;;7.38;;
72422;SDS011;71399;54.146;38.734;2024-02-21T02:26:53;12.55;;;4.63;;
72422;SDS011;71399;54.146;38.734;2024-02-21T02:29:19;9.77;;;4.60;;
72422;SDS011;71399;54.146;38.734;2024-02-21T02:31:46;9.63;;;4.53;;
72422;SDS011;71399;54.146;38.734;2024-02-21T02:34:12;10.77;;;4.82;;
72422;SDS011;71399;54.146;38.734;2024-02-21T02:36:39;9.10;;;3.95;;
72422;SDS011;71399;54.146;38.734;2024-02-21T02:39:05;10.85;;;4.63;;
72422;SDS011;71399;54.146;38.734;2024-02-21T02:41:34;10.77;;;4.65;;
72422;SDS011;71399;54.146;38.734;2024-02-21T02:44:03;10.77;;;5.03;;
72422;SDS011;71399;54.146;38.734;2024-02-21T02:46:29;11.75;;;5.00;;
72422;SDS011;71399;54.146;38.734;2024-02-21T02:48:55;10.15;;;4.78;;
72422;SDS011;71399;54.146;38.734;2024-02-21T02:51:22;11.13;;;4.80;;
72422;SDS011;71399;54.146;38.734;2024-02-21T02:53:48;13.60;;;5.15;;
72422;SDS011;71399;54.146;38.734;2024-02-21T02:56:14;13.38;;;5.35;;
72422;SDS011;71399;54.146;38.734;2024-02-21T02:58:44;8.93;;;4.68;;
72422;SDS011;71399;54.146;38.734;2024-02-21T03:01:10;10.02;;;5.25;;
72422;SDS011;71399;54.146;38.734;2024-02-21T03:03:37;9.95;;;4.15;;
72422;SDS011;71399;54.146;38.734;2024-02-21T03:06:03;11.20;;;5.13;;
72422;SDS011;71399;54.146;38.734;2024-02-21T03:08:30;11.57;;;5.13;;
72422;SDS011;71399;54.146;38.734;2024-02-21T03:10:56;10.63;;;4.68;;
72422;SDS011;71399;54.146;38.734;2024-02-21T03:13:23;12.40;;;4.50;;
72422;SDS011;71399;54.146;38.734;2024-02-21T03:15:49;10.75;;;5.15;;
72422;SDS011;71399;54.146;38.734;2024-02-21T03:18:15;10.23;;;4.50;;
72422;SDS011;71399;54.146;38.734;2024-02-21T03:20:42;11.27;;;5.55;;
72422;SDS011;71399;54.146;38.734;2024-02-21T03:23:08;11.13;;;4.72;;
72422;SDS011;71399;54.146;38.734;2024-02-21T03:25:34;8.10;;;4.55;;
72422;SDS011;71399;54.146;38.734;2024-02-21T03:28:00;11.57;;;4.68;;
72422;SDS011;71399;54.146;38.734;2024-02-21T03:30:27;13.63;;;5.57;;
72422;SDS011;71399;54.146;38.734;2024-02-21T03:32:53;9.50;;;4.55;;
72422;SDS011;71399;54.146;38.734;2024-02-21T03:35:20;11.43;;;5.25;;
72422;SDS011;71399;54.146;38.734;2024-02-21T03:37:46;13.35;;;5.38;;
72422;SDS011;71399;54.146;38.734;2024-02-21T03:40:13;12.27;;;5.93;;
72422;SDS011;71399;54.146;38.734;2024-02-21T03:42:40;18.08;;;5.25;;
72422;SDS011;71399;54.146;38.734;2024-02-21T03:45:06;12.18;;;5.15;;
72422;SDS011;71399;54.146;38.734;2024-02-21T03:47:33;10.32;;;4.75;;
72422;SDS011;71399;54.146;38.734;2024-02-21T03:49:59;10.77;;;5.28;;
72422;SDS011;71399;54.146;38.734;2024-02-21T03:52:26;10.82;;;5.22;;
72422;SDS011;71399;54.146;38.734;2024-02-21T03:54:52;11.07;;;4.97;;
72422;SDS011;71399;54.146;38.734;2024-02-21T03:57:20;9.80;;;4.88;;
72422;SDS011;71399;54.146;38.734;2024-02-21T03:59:49;10.70;;;5.30;;
72422;SDS011;71399;54.146;38.734;2024-02-21T04:02:17;14.95;;;5.78;;
72422;SDS011;71399;54.146;38.734;2024-02-21T04:04:44;12.73;;;5.00;;
72422;SDS011;71399;54.146;38.734;2024-02-21T04:07:14;11.25;;;6.38;;
72422;SDS011;71399;54.146;38.734;2024-02-21T04:09:41;11.30;;;4.97;;
72422;SDS011;71399;54.146;38.734;2024-02-21T04:12:07;12.10;;;5.22;;
72422;SDS011;71399;54.146;38.734;2024-02-21T04:14:35;9.95;;;5.00;;
72422;SDS011;71399;54.146;38.734;2024-02-21T04:17:01;10.50;;;4.90;;
72422;SDS011;71399;54.146;38.734;2024-02-21T04:19:28;9.48;;;4.63;;
72422;SDS011;71399;54.146;38.734;2024-02-21T04:21:54;16.33;;;4.97;;
72422;SDS011;71399;54.146;38.734;2024-02-21T04:24:20;13.85;;;5.53;;
72422;SDS011;71399;54.146;38.734;2024-02-21T04:26:46;10.45;;;4.57;;
72422;SDS011;71399;54.146;38.734;2024-02-21T04:29:13;10.43;;;4.40;;
72422;SDS011;71399;54.146;38.734;2024-02-21T04:31:39;10.80;;;4.80;;
72422;SDS011;71399;54.146;38.734;2024-02-21T04:34:06;9.48;;;4.85;;
72422;SDS011;71399;54.146;38.734;2024-02-21T04:36:32;12.25;;;5.43;;
72422;SDS011;71399;54.146;38.734;2024-02-21T04:38:58;14.07;;;5.30;;
72422;SDS011;71399;54.146;38.734;2024-02-21T04:41:26;15.30;;;5.50;;
72422;SDS011;71399;54.146;38.734;2024-02-21T04:43:53;13.93;;;5.55;;
72422;SDS011;71399;54.146;38.734;2024-02-21T04:46:19;10.65;;;4.70;;
72422;SDS011;71399;54.146;38.734;2024-02-21T04:48:45;12.43;;;5.97;;
72422;SDS011;71399;54.146;38.734;2024-02-21T04:51:11;10.60;;;5.60;;
72422;SDS011;71399;54.146;38.734;2024-02-21T04:53:39;12.55;;;5.63;;
72422;SDS011;71399;54.146;38.734;2024-02-21T04:56:05;11.15;;;4.40;;
72422;SDS011;71399;54.146;38.734;2024-02-21T04:58:32;8.57;;;4.30;;
72422;SDS011;71399;54.146;38.734;2024-02-21T05:00:58;12.15;;;5.07;;
72422;SDS011;71399;54.146;38.734;2024-02-21T05:03:24;11.10;;;5.70;;
72422;SDS011;71399;54.146;38.734;2024-02-21T05:05:50;10.73;;;5.65;;
72422;SDS011;71399;54.146;38.734;2024-02-21T05:08:17;11.10;;;5.18;;
72422;SDS011;71399;54.146;38.734;2024-02-21T05:10:43;13.93;;;6.05;;
72422;SDS011;71399;54.146;38.734;2024-02-21T05:13:09;12.32;;;5.68;;
72422;SDS011;71399;54.146;38.734;2024-02-21T05:15:35;12.25;;;5.13;;
72422;SDS011;71399;54.146;38.734;2024-02-21T05:18:02;10.68;;;5.03;;
72422;SDS011;71399;54.146;38.734;2024-02-21T05:20:28;9.15;;;4.97;;
72422;SDS011;71399;54.146;38.734;2024-02-21T05:22:54;9.77;;;4.95;;
72422;SDS011;71399;54.146;38.734;2024-02-21T05:25:21;12.20;;;5.15;;
72422;SDS011;71399;54.146;38.734;2024-02-21T05:27:47;9.63;;;4.65;;
72422;SDS011;71399;54.146;38.734;2024-02-21T05:30:14;10.95;;;5.35;;
72422;SDS011;71399;54.146;38.734;2024-02-21T05:32:41;16.85;;;5.90;;
72422;SDS011;71399;54.146;38.734;2024-02-21T05:35:07;9.95;;;4.43;;
72422;SDS011;71399;54.146;38.734;2024-02-21T05:37:33;12.68;;;5.55;;
72422;SDS011;71399;54.146;38.734;2024-02-21T05:40:00;13.38;;;5.47;;
72422;SDS011;71399;54.146;38.734;2024-02-21T05:42:26;9.93;;;4.75;;
72422;SDS011;71399;54.146;38.734;2024-02-21T05:44:52;13.82;;;6.10;;
72422;SDS011;71399;54.146;38.734;2024-02-21T05:47:18;13.13;;;5.75;;
72422;SDS011;71399;54.146;38.734;2024-02-21T05:49:46;11.93;;;5.60;;
72422;SDS011;71399;54.146;38.734;2024-02-21T05:52:13;13.40;;;5.88;;
72422;SDS011;71399;54.146;38.734;2024-02-21T05:54:39;12.82;;;5.57;;
72422;SDS011;71399;54.146;38.734;2024-02-21T05:57:07;11.77;;;5.28;;
72422;SDS011;71399;54.146;38.734;2024-02-21T05:59:33;11.05;;;5.45;;
72422;SDS011;71399;54.146;38.734;2024-02-21T06:02:02;11.45;;;5.22;;
72422;SDS011;71399;54.146;38.734;2024-02-21T06:04:29;10.60;;;5.80;;
72422;SDS011;71399;54.146;38.734;2024-02-21T06:06:56;12.75;;;5.82;;
72422;SDS011;71399;54.146;38.734;2024-02-21T06:09:22;16.10;;;6.47;;
72422;SDS011;71399;54.146;38.734;2024-02-21T06:11:48;13.88;;;5.50;;
72422;SDS011;71399;54.146;38.734;2024-02-21T06:14:14;12.80;;;5.97;;
72422;SDS011;71399;54.146;38.734;2024-02-21T06:16:41;10.93;;;6.03;;
72422;SDS011;71399;54.146;38.734;2024-02-21T06:19:08;20.23;;;6.43;;
72422;SDS011;71399;54.146;38.734;2024-02-21T06:21:35;16.17;;;5.65;;
72422;SDS011;71399;54.146;38.734;2024-02-21T06:24:02;11.63;;;5.43;;
72422;SDS011;71399;54.146;38.734;2024-02-21T06:26:28;13.13;;;5.57;;
72422;SDS011;71399;54.146;38.734;2024-02-21T06:28:55;13.68;;;6.13;;
72422;SDS011;71399;54.146;38.734;2024-02-21T06:31:21;14.18;;;5.70;;
72422;SDS011;71399;54.146;38.734;2024-02-21T06:33:47;11.95;;;5.88;;
72422;SDS011;71399;54.146;38.734;2024-02-21T06:36:14;12.38;;;5.43;;
72422;SDS011;71399;54.146;38.734;2024-02-21T06:38:40;10.98;;;5.03;;
72422;SDS011;71399;54.146;38.734;2024-02-21T06:41:14;10.38;;;5.35;;
72422;SDS011;71399;54.146;38.734;2024-02-21T06:43:41;12.38;;;5.50;;
72422;SDS011;71399;54.146;38.734;2024-02-21T06:46:07;10.50;;;5.03;;
72422;SDS011;71399;54.146;38.734;2024-02-21T06:48:33;13.52;;;5.78;;
72422;SDS011;71399;54.146;38.734;2024-02-21T06:50:59;12.85;;;5.30;;
72422;SDS011;71399;54.146;38.734;2024-02-21T06:53:25;10.65;;;4.93;;
72422;SDS011;71399;54.146;38.734;2024-02-21T06:55:52;10.27;;;4.57;;
72422;SDS011;71399;54.146;38.734;2024-02-21T06:58:18;11.75;;;5.22;;
72422;SDS011;71399;54.146;38.734;2024-02-21T07:00:45;15.60;;;4.97;;
72422;SDS011;71399;54.146;38.734;2024-02-21T07:03:12;11.88;;;4.82;;
72422;SDS011;71399;54.146;38.734;2024-02-21T07:05:40;10.45;;;5.13;;
72422;SDS011;71399;54.146;38.734;2024-02-21T07:08:06;12.50;;;5.07;;
72422;SDS011;71399;54.146;38.734;2024-02-21T07:10:32;18.42;;;7.57;;
72422;SDS011;71399;54.146;38.734;2024-02-21T07:12:58;12.85;;;4.63;;
72422;SDS011;71399;54.146;38.734;2024-02-21T07:15:25;12.38;;;5.80;;
72422;SDS011;71399;54.146;38.734;2024-02-21T07:17:52;14.20;;;4.75;;
72422;SDS011;71399;54.146;38.734;2024-02-21T07:20:19;10.27;;;4.82;;
72422;SDS011;71399;54.146;38.734;2024-02-21T07:22:45;10.95;;;5.18;;
72422;SDS011;71399;54.146;38.734;2024-02-21T07:25:12;8.98;;;5.22;;
72422;SDS011;71399;54.146;38.734;2024-02-21T07:27:38;13.55;;;5.38;;
72422;SDS011;71399;54.146;38.734;2024-02-21T07:30:05;11.38;;;5.50;;
72422;SDS011;71399;54.146;38.734;2024-02-21T07:32:32;10.65;;;5.38;;
72422;SDS011;71399;54.146;38.734;2024-02-21T07:34:58;18.08;;;5.35;;
72422;SDS011;71399;54.146;38.734;2024-02-21T07:37:24;11.98;;;5.38;;
72422;SDS011;71399;54.146;38.734;2024-02-21T07:39:51;12.88;;;5.47;;
72422;SDS011;71399;54.146;38.734;2024-02-21T07:42:17;9.98;;;5.07;;
72422;SDS011;71399;54.146;38.734;2024-02-21T07:44:43;10.13;;;5.22;;
72422;SDS011;71399;54.146;38.734;2024-02-21T07:47:09;11.15;;;4.85;;
72422;SDS011;71399;54.146;38.734;2024-02-21T07:49:44;12.52;;;5.50;;
72422;SDS011;71399;54.146;38.734;2024-02-21T07:52:12;11.88;;;5.28;;
72422;SDS011;71399;54.146;38.734;2024-02-21T07:54:40;13.38;;;5.03;;
72422;SDS011;71399;54.146;38.734;2024-02-21T07:57:07;13.80;;;5.97;;
72422;SDS011;71399;54.146;38.734;2024-02-21T07:59:33;10.05;;;4.93;;
72422;SDS011;71399;54.146;38.734;2024-02-21T08:01:59;10.70;;;5.03;;
72422;SDS011;71399;54.146;38.734;2024-02-21T08:04:26;9.85;;;4.43;;
72422;SDS011;71399;54.146;38.734;2024-02-21T08:06:53;12.32;;;4.85;;
72422;SDS011;71399;54.146;38.734;2024-02-21T08:09:25;14.93;;;5.50;;
72422;SDS011;71399;54.146;38.734;2024-02-21T08:11:51;8.85;;;4.78;;
72422;SDS011;71399;54.146;38.734;2024-02-21T08:14:17;12.50;;;5.97;;
72422;SDS011;71399;54.146;38.734;2024-02-21T08:16:43;11.35;;;5.22;;
72422;SDS011;71399;54.146;38.734;2024-02-21T08:19:10;10.85;;;4.97;;
72422;SDS011;71399;54.146;38.734;2024-02-21T08:21:36;11.63;;;5.13;;
72422;SDS011;71399;54.146;38.734;2024-02-21T08:24:03;13.48;;;5.20;;
72422;SDS011;71399;54.146;38.734;2024-02-21T08:26:29;10.20;;;5.28;;
72422;SDS011;71399;54.146;38.734;2024-02-21T08:28:56;10.43;;;5.53;;
72422;SDS011;71399;54.146;38.734;2024-02-21T08:31:26;10.05;;;4.93;;
72422;SDS011;71399;54.146;38.734;2024-02-21T08:34:00;15.75;;;5.47;;
72422;SDS011;71399;54.146;38.734;2024-02-21T08:36:34;11.82;;;5.50;;
72422;SDS011;71399;54.146;38.734;2024-02-21T08:39:01;8.57;;;4.63;;
72422;SDS011;71399;54.146;38.734;2024-02-21T08:41:31;11.15;;;5.13;;
72422;SDS011;71399;54.146;38.734;2024-02-21T08:43:58;9.95;;;4.88;;
72422;SDS011;71399;54.146;38.734;2024-02-21T08:46:24;7.97;;;3.95;;
72422;SDS011;71399;54.146;38.734;2024-02-21T08:48:51;13.45;;;5.70;;
72422;SDS011;71399;54.146;38.734;2024-02-21T08:51:17;12.15;;;5.72;;
72422;SDS011;71399;54.146;38.734;2024-02-21T08:53:45;10.80;;;4.82;;
72422;SDS011;71399;54.146;38.734;2024-02-21T08:56:11;10.75;;;4.78;;
72422;SDS011;71399;54.146;38.734;2024-02-21T08:58:39;9.10;;;4.90;;
72422;SDS011;71399;54.146;38.734;2024-02-21T09:01:06;10.68;;;5.13;;
72422;SDS011;71399;54.146;38.734;2024-02-21T09:03:38;9.48;;;4.85;;
72422;SDS011;71399;54.146;38.734;2024-02-21T09:06:05;12.15;;;4.88;;
72422;SDS011;71399;54.146;38.734;2024-02-21T09:08:32;8.02;;;4.50;;
72422;SDS011;71399;54.146;38.734;2024-02-21T09:11:02;12.82;;;5.50;;
72422;SDS011;71399;54.146;38.734;2024-02-21T09:13:29;10.90;;;4.95;;
72422;SDS011;71399;54.146;38.734;2024-02-21T09:15:56;10.80;;;5.10;;
72422;SDS011;71399;54.146;38.734;2024-02-21T09:18:22;13.20;;;5.18;;
72422;SDS011;71399;54.146;38.734;2024-02-21T09:20:48;9.77;;;4.47;;
72422;SDS011;71399;54.146;38.734;2024-02-21T09:23:15;10.73;;;5.47;;
72422;SDS011;71399;54.146;38.734;2024-02-21T09:25:42;10.68;;;4.45;;
72422;SDS011;71399;54.146;38.734;2024-02-21T09:28:08;12.85;;;4.97;;
72422;SDS011;71399;54.146;38.734;2024-02-21T09:30:35;11.00;;;5.18;;
72422;SDS011;71399;54.146;38.734;2024-02-21T09:33:04;11.18;;;5.35;;
72422;SDS011;71399;54.146;38.734;2024-02-21T09:35:31;12.65;;;5.25;;
72422;SDS011;71399;54.146;38.734;2024-02-21T09:37:59;7.72;;;4.60;;
72422;SDS011;71399;54.146;38.734;2024-02-21T09:40:25;11.95;;;5.53;;
72422;SDS011;71399;54.146;38.734;2024-02-21T09:42:55;10.40;;;5.35;;
72422;SDS011;71399;54.146;38.734;2024-02-21T09:45:29;10.05;;;5.00;;
72422;SDS011;71399;54.146;38.734;2024-02-21T09:48:13;11.25;;;4.75;;
72422;SDS011;71399;54.146;38.734;2024-02-21T09:51:01;13.30;;;5.07;;
72422;SDS011;71399;54.146;38.734;2024-02-21T09:53:30;12.07;;;5.75;;
72422;SDS011;71399;54.146;38.734;2024-02-21T09:55:58;10.60;;;5.63;;
72422;SDS011;71399;54.146;38.734;2024-02-21T09:58:25;12.48;;;5.47;;
72422;SDS011;71399;54.146;38.734;2024-02-21T10:00:53;10.85;;;5.38;;
72422;SDS011;71399;54.146;38.734;2024-02-21T10:03:21;11.95;;;4.97;;
72422;SDS011;71399;54.146;38.734;2024-02-21T10:05:48;9.70;;;4.55;;
72422;SDS011;71399;54.146;38.734;2024-02-21T10:08:18;13.10;;;5.93;;
72422;SDS011;71399;54.146;38.734;2024-02-21T10:10:45;9.07;;;4.80;;
72422;SDS011;71399;54.146;38.734;2024-02-21T10:13:25;13.38;;;4.93;;
72422;SDS011;71399;54.146;38.734;2024-02-21T10:16:03;9.60;;;5.30;;
72422;SDS011;71399;54.146;38.734;2024-02-21T10:18:33;11.88;;;5.38;;
72422;SDS011;71399;54.146;38.734;2024-02-21T10:21:05;10.25;;;5.00;;
72422;SDS011;71399;54.146;38.734;2024-02-21T10:23:47;10.95;;;5.25;;
72422;SDS011;71399;54.146;38.734;2024-02-21T10:26:16;11.93;;;5.13;;
72422;SDS011;71399;54.146;38.734;2024-02-21T10:28:44;15.20;;;5.47;;
72422;SDS011;71399;54.146;38.734;2024-02-21T10:31:22;14.38;;;5.60;;
72422;SDS011;71399;54.146;38.734;2024-02-21T10:36:43;12.68;;;5.80;;
72422;SDS011;71399;54.146;38.734;2024-02-21T10:39:09;12.05;;;5.53;;
72422;SDS011;71399;54.146;38.734;2024-02-21T10:41:36;10.15;;;5.07;;
72422;SDS011;71399;54.146;38.734;2024-02-21T10:44:04;11.52;;;5.05;;
72422;SDS011;71399;54.146;38.734;2024-02-21T10:46:31;8.15;;;4.70;;
72422;SDS011;71399;54.146;38.734;2024-02-21T10:49:07;11.25;;;5.05;;
72422;SDS011;71399;54.146;38.734;2024-02-21T10:51:40;13.93;;;5.18;;
72422;SDS011;71399;54.146;38.734;2024-02-21T10:57:03;12.23;;;5.28;;
72422;SDS011;71399;54.146;38.734;2024-02-21T10:59:31;10.05;;;4.65;;
72422;SDS011;71399;54.146;38.734;2024-02-21T11:01:58;10.60;;;5.13;;
72422;SDS011;71399;54.146;38.734;2024-02-21T11:04:24;13.05;;;4.80;;
72422;SDS011;71399;54.146;38.734;2024-02-21T11:06:54;11.35;;;5.63;;
72422;SDS011;71399;54.146;38.734;2024-02-21T11:09:29;14.30;;;5.20;;
72422;SDS011;71399;54.146;38.734;2024-02-21T11:12:05;12.57;;;4.88;;
72422;SDS011;71399;54.146;38.734;2024-02-21T11:14:33;11.27;;;5.00;;
72422;SDS011;71399;54.146;38.734;2024-02-21T11:17:17;9.25;;;4.80;;
72422;SDS011;71399;54.146;38.734;2024-02-21T11:19:44;16.55;;;4.95;;
72422;SDS011;71399;54.146;38.734;2024-02-21T11:22:14;12.18;;;5.45;;
72422;SDS011;71399;54.146;38.734;2024-02-21T11:24:45;12.25;;;5.43;;
72422;SDS011;71399;54.146;38.734;2024-02-21T11:27:12;15.15;;;5.25;;
72422;SDS011;71399;54.146;38.734;2024-02-21T11:29:42;11.93;;;5.40;;
72422;SDS011;71399;54.146;38.734;2024-02-21T11:32:19;12.00;;;5.35;;
72422;SDS011;71399;54.146;38.734;2024-02-21T11:35:01;14.90;;;6.10;;
72422;SDS011;71399;54.146;38.734;2024-02-21T11:37:34;16.80;;;6.60;;
72422;SDS011;71399;54.146;38.734;2024-02-21T11:40:05;13.13;;;5.25;;
72422;SDS011;71399;54.146;38.734;2024-02-21T11:42:36;10.00;;;5.45;;
72422;SDS011;71399;54.146;38.734;2024-02-21T11:45:02;10.27;;;4.72;;
72422;SDS011;71399;54.146;38.734;2024-02-21T11:47:33;11.00;;;5.18;;
72422;SDS011;71399;54.146;38.734;2024-02-21T11:49:59;14.63;;;6.07;;
72422;SDS011;71399;54.146;38.734;2024-02-21T11:52:26;15.55;;;6.18;;
72422;SDS011;71399;54.146;38.734;2024-02-21T11:54:55;14.18;;;5.57;;
72422;SDS011;71399;54.146;38.734;2024-02-21T11:57:29;15.05;;;6.15;;
72422;SDS011;71399;54.146;38.734;2024-02-21T11:59:56;10.07;;;5.50;;
72422;SDS011;71399;54.146;38.734;2024-02-21T12:02:22;12.68;;;6.35;;
72422;SDS011;71399;54.146;38.734;2024-02-21T12:04:48;17.73;;;6.13;;
72422;SDS011;71399;54.146;38.734;2024-02-21T12:07:14;12.75;;;6.15;;
72422;SDS011;71399;54.146;38.734;2024-02-21T12:09:41;15.63;;;6.57;;
72422;SDS011;71399;54.146;38.734;2024-02-21T12:12:08;17.15;;;6.20;;
72422;SDS011;71399;54.146;38.734;2024-02-21T12:14:34;13.38;;;6.03;;
72422;SDS011;71399;54.146;38.734;2024-02-21T12:17:02;11.93;;;6.25;;
72422;SDS011;71399;54.146;38.734;2024-02-21T12:19:32;13.13;;;6.10;;
72422;SDS011;71399;54.146;38.734;2024-02-21T12:21:59;13.20;;;5.95;;
72422;SDS011;71399;54.146;38.734;2024-02-21T12:24:27;14.32;;;6.13;;
72422;SDS011;71399;54.146;38.734;2024-02-21T12:26:55;11.20;;;5.72;;
72422;SDS011;71399;54.146;38.734;2024-02-21T12:29:26;17.08;;;7.38;;
72422;SDS011;71399;54.146;38.734;2024-02-21T12:31:55;15.05;;;6.10;;
72422;SDS011;71399;54.146;38.734;2024-02-21T12:34:23;17.92;;;6.50;;
72422;SDS011;71399;54.146;38.734;2024-02-21T12:36:52;15.98;;;6.50;;
72422;SDS011;71399;54.146;38.734;2024-02-21T12:39:19;13.35;;;6.43;;
72422;SDS011;71399;54.146;38.734;2024-02-21T12:41:45;21.77;;;9.18;;
72422;SDS011;71399;54.146;38.734;2024-02-21T12:44:12;15.95;;;7.18;;
72422;SDS011;71399;54.146;38.734;2024-02-21T12:46:39;15.57;;;6.88;;
72422;SDS011;71399;54.146;38.734;2024-02-21T12:49:07;14.73;;;7.32;;
72422;SDS011;71399;54.146;38.734;2024-02-21T12:51:34;12.68;;;7.18;;
72422;SDS011;71399;54.146;38.734;2024-02-21T12:54:01;18.15;;;7.15;;
72422;SDS011;71399;54.146;38.734;2024-02-21T12:56:28;15.05;;;6.60;;
72422;SDS011;71399;54.146;38.734;2024-02-21T12:58:57;14.18;;;6.70;;
72422;SDS011;71399;54.146;38.734;2024-02-21T13:01:23;16.02;;;6.78;;
72422;SDS011;71399;54.146;38.734;2024-02-21T13:03:50;15.50;;;6.50;;
72422;SDS011;71399;54.146;38.734;2024-02-21T13:06:16;18.55;;;6.93;;
72422;SDS011;71399;54.146;38.734;2024-02-21T13:08:44;18.13;;;7.53;;
72422;SDS011;71399;54.146;38.734;2024-02-21T13:11:12;16.45;;;7.28;;
72422;SDS011;71399;54.146;38.734;2024-02-21T13:13:39;16.40;;;6.53;;
72422;SDS011;71399;54.146;38.734;2024-02-21T13:16:05;17.92;;;6.80;;
72422;SDS011;71399;54.146;38.734;2024-02-21T13:18:31;17.63;;;7.13;;
72422;SDS011;71399;54.146;38.734;2024-02-21T13:20:58;18.13;;;7.32;;
72422;SDS011;71399;54.146;38.734;2024-02-21T13:23:24;18.70;;;7.28;;
72422;SDS011;71399;54.146;38.734;2024-02-21T13:25:50;16.90;;;6.60;;
72422;SDS011;71399;54.146;38.734;2024-02-21T13:28:17;16.95;;;7.05;;
72422;SDS011;71399;54.146;38.734;2024-02-21T13:30:44;16.85;;;6.72;;
72422;SDS011;71399;54.146;38.734;2024-02-21T13:33:11;17.92;;;7.70;;
72422;SDS011;71399;54.146;38.734;2024-02-21T13:35:38;13.98;;;6.75;;
72422;SDS011;71399;54.146;38.734;2024-02-21T13:38:05;16.98;;;6.25;;
72422;SDS011;71399;54.146;38.734;2024-02-21T13:40:31;13.02;;;6.25;;
72422;SDS011;71399;54.146;38.734;2024-02-21T13:42:57;21.70;;;8.23;;
72422;SDS011;71399;54.146;38.734;2024-02-21T13:45:23;14.70;;;6.93;;
72422;SDS011;71399;54.146;38.734;2024-02-21T13:47:50;14.07;;;6.60;;
72422;SDS011;71399;54.146;38.734;2024-02-21T13:50:16;18.25;;;7.57;;
72422;SDS011;71399;54.146;38.734;2024-02-21T13:52:44;15.40;;;7.45;;
72422;SDS011;71399;54.146;38.734;2024-02-21T13:55:10;15.52;;;6.88;;
72422;SDS011;71399;54.146;38.734;2024-02-21T13:57:37;17.35;;;7.72;;
72422;SDS011;71399;54.146;38.734;2024-02-21T14:00:06;14.50;;;7.13;;
72422;SDS011;71399;54.146;38.734;2024-02-21T14:02:39;18.40;;;7.03;;
72422;SDS011;71399;54.146;38.734;2024-02-21T14:05:05;18.83;;;8.15;;
72422;SDS011;71399;54.146;38.734;2024-02-21T14:07:32;18.52;;;8.10;;
72422;SDS011;71399;54.146;38.734;2024-02-21T14:09:59;16.80;;;8.27;;
72422;SDS011;71399;54.146;38.734;2024-02-21T14:12:25;19.95;;;8.05;;
72422;SDS011;71399;54.146;38.734;2024-02-21T14:14:51;22.77;;;8.43;;
72422;SDS011;71399;54.146;38.734;2024-02-21T14:17:18;17.98;;;7.97;;
72422;SDS011;71399;54.146;38.734;2024-02-21T14:19:45;17.73;;;7.43;;
72422;SDS011;71399;54.146;38.734;2024-02-21T14:22:12;18.30;;;7.93;;
72422;SDS011;71399;54.146;38.734;2024-02-21T14:24:38;14.15;;;7.20;;
72422;SDS011;71399;54.146;38.734;2024-02-21T14:27:04;19.27;;;7.55;;
72422;SDS011;71399;54.146;38.734;2024-02-21T14:29:30;16.98;;;7.90;;
72422;SDS011;71399;54.146;38.734;2024-02-21T14:31:57;15.05;;;7.15;;